createdAt,value
2023-06-29T00:02:51.806Z,13.51
2023-06-29T00:05:56.566Z,13.45
2023-06-29T00:09:01.073Z,13.39
2023-06-29T00:12:05.524Z,13.45
2023-06-29T00:15:09.529Z,13.43
2023-06-29T00:18:14.015Z,13.31
2023-06-29T00:21:17.655Z,13.23
2023-06-29T00:24:22.121Z,13.25
2023-06-29T00:27:25.936Z,13.22
2023-06-29T00:30:29.331Z,13.21
2023-06-29T00:33:32.884Z,13.07
2023-06-29T00:36:36.083Z,12.95
2023-06-29T00:39:41.223Z,13.05
2023-06-29T00:42:44.377Z,12.94
2023-06-29T00:45:47.707Z,13.01
2023-06-29T00:48:50.891Z,12.94
2023-06-29T00:51:55.953Z,12.86
2023-06-29T00:55:00.900Z,12.94
2023-06-29T00:58:06.884Z,12.97
2023-06-29T01:01:10.101Z,13.02
2023-06-29T01:04:18.516Z,12.83
2023-06-29T01:07:28.633Z,13.00
2023-06-29T01:10:35.560Z,12.87
2023-06-29T01:13:40.880Z,12.83
2023-06-29T01:16:45.695Z,12.72
2023-06-29T01:19:50.927Z,12.77
2023-06-29T01:22:58.118Z,12.77
2023-06-29T01:26:05.268Z,12.63
2023-06-29T01:29:08.473Z,12.56
2023-06-29T01:32:12.790Z,12.49
2023-06-29T01:35:16.370Z,12.45
2023-06-29T01:38:26.105Z,12.29
2023-06-29T01:41:34.337Z,12.13
2023-06-29T01:44:37.733Z,12.21
2023-06-29T01:47:47.756Z,12.22
2023-06-29T01:50:51.648Z,12.17
2023-06-29T01:53:55.545Z,12.21
2023-06-29T01:57:00.436Z,12.17
2023-06-29T02:00:04.831Z,12.15
2023-06-29T02:03:17.316Z,12.07
2023-06-29T02:06:21.852Z,11.98
2023-06-29T02:09:25.063Z,11.94
2023-06-29T02:12:29.623Z,11.91
2023-06-29T02:15:32.881Z,11.90
2023-06-29T02:18:42.320Z,11.88
2023-06-29T02:21:45.564Z,11.96
2023-06-29T02:24:48.898Z,11.82
2023-06-29T02:27:53.437Z,12.01
2023-06-29T02:30:56.672Z,11.94
2023-06-29T02:34:00.269Z,12.07
2023-06-29T02:37:03.888Z,11.89
2023-06-29T02:40:08.338Z,11.79
2023-06-29T02:43:13.268Z,11.60
2023-06-29T02:46:17.188Z,11.54
2023-06-29T02:49:21.185Z,11.61
2023-06-29T02:52:25.371Z,11.63
2023-06-29T02:55:30.008Z,11.53
2023-06-29T02:58:34.538Z,11.54
2023-06-29T03:01:41.621Z,11.35
2023-06-29T03:04:44.792Z,11.35
2023-06-29T03:07:47.984Z,11.55
2023-06-29T03:10:51.165Z,11.34
2023-06-29T03:13:57.131Z,11.30
2023-06-29T03:17:00.439Z,11.43
2023-06-29T03:20:03.648Z,11.48
2023-06-29T03:23:07.067Z,11.40
2023-06-29T03:26:10.227Z,11.33
2023-06-29T03:29:14.990Z,11.27
2023-06-29T03:35:10.835Z,11.18
2023-06-29T03:38:14.080Z,11.47
2023-06-29T03:41:17.408Z,11.31
2023-06-29T03:44:20.585Z,11.29
2023-06-29T03:47:23.846Z,11.39
2023-06-29T03:50:28.653Z,11.34
2023-06-29T03:53:31.813Z,11.41
2023-06-29T03:56:35.174Z,11.46
2023-06-29T03:59:38.481Z,11.58
2023-06-29T04:02:48.526Z,11.63
2023-06-29T04:05:53.017Z,11.75
2023-06-29T04:08:56.201Z,12.31
2023-06-29T04:11:59.489Z,12.24
2023-06-29T04:15:02.651Z,12.28
2023-06-29T04:18:06.605Z,12.32
2023-06-29T04:21:11.415Z,12.24
2023-06-29T04:24:14.753Z,12.40
2023-06-29T04:27:18.753Z,12.47
2023-06-29T04:30:22.044Z,12.51
2023-06-29T04:33:25.449Z,12.79
2023-06-29T04:36:30.474Z,13.20
2023-06-29T04:39:33.800Z,12.94
2023-06-29T04:42:45.042Z,13.00
2023-06-29T04:45:48.400Z,13.15
2023-06-29T04:48:51.715Z,13.12
2023-06-29T04:51:58.982Z,13.47
2023-06-29T04:55:03.624Z,13.41
2023-06-29T04:58:07.245Z,13.50
2023-06-29T05:01:10.669Z,13.49
2023-06-29T05:04:13.846Z,13.66
2023-06-29T05:07:18.957Z,13.64
2023-06-29T05:10:22.435Z,13.71
2023-06-29T05:13:25.584Z,13.93
2023-06-29T05:16:30.138Z,13.82
2023-06-29T05:19:35.430Z,14.05
2023-06-29T05:22:40.077Z,14.67
2023-06-29T05:25:43.575Z,14.31
2023-06-29T05:29:03.781Z,14.54
2023-06-29T05:32:08.541Z,14.72
2023-06-29T05:35:11.652Z,15.22
2023-06-29T05:38:16.420Z,15.44
2023-06-29T05:41:19.651Z,15.28
2023-06-29T05:44:22.763Z,15.39
2023-06-29T05:47:25.968Z,15.84
2023-06-29T05:50:29.215Z,16.01
2023-06-29T05:53:33.897Z,16.09
2023-06-29T05:56:37.143Z,16.37
2023-06-29T05:59:40.346Z,16.90
2023-06-29T06:02:47.760Z,17.75
2023-06-29T06:05:51.113Z,18.21
2023-06-29T06:08:55.857Z,19.15
2023-06-29T06:11:59.026Z,20.17
2023-06-29T06:15:02.200Z,20.16
2023-06-29T06:18:05.999Z,20.30
2023-06-29T06:21:09.416Z,20.39
2023-06-29T06:24:13.902Z,20.59
2023-06-29T06:27:17.205Z,20.84
2023-06-29T06:30:22.102Z,20.66
2023-06-29T06:33:25.325Z,20.54
2023-06-29T06:36:31.182Z,21.31
2023-06-29T06:39:36.123Z,21.44
2023-06-29T06:42:40.391Z,20.95
2023-06-29T06:45:43.613Z,21.72
2023-06-29T06:48:48.686Z,21.25
2023-06-29T06:51:51.869Z,20.94
2023-06-29T06:54:58.190Z,21.34
2023-06-29T06:58:01.423Z,22.48
2023-06-29T07:01:05.199Z,21.62
2023-06-29T07:04:08.403Z,22.21
2023-06-29T07:07:11.691Z,22.47
2023-06-29T07:10:16.313Z,22.88
2023-06-29T07:13:20.071Z,22.34
2023-06-29T07:16:24.620Z,23.16
2023-06-29T07:25:41.789Z,23.33
2023-06-29T07:28:45.292Z,23.84
2023-06-29T07:31:48.746Z,24.25
2023-06-29T07:34:52.068Z,23.26
2023-06-29T07:37:55.226Z,24.35
2023-06-29T07:40:59.760Z,23.59
2023-06-29T07:44:03.058Z,24.59
2023-06-29T07:47:07.307Z,23.96
2023-06-29T07:50:12.178Z,24.36
2023-06-29T07:53:15.342Z,24.63
2023-06-29T07:56:20.332Z,24.75
2023-06-29T07:59:24.119Z,24.78
2023-06-29T08:02:27.361Z,24.67
2023-06-29T08:08:37.089Z,25.13
2023-06-29T08:11:41.748Z,25.57
2023-06-29T08:14:45.015Z,25.05
2023-06-29T08:17:48.376Z,25.31
2023-06-29T08:20:52.186Z,25.74
2023-06-29T08:23:55.424Z,25.93
2023-06-29T08:27:01.084Z,25.90
2023-06-29T08:30:04.858Z,25.68
2023-06-29T08:33:08.422Z,25.52
2023-06-29T08:36:11.756Z,25.63
2023-06-29T08:39:15.031Z,25.80
2023-06-29T08:42:20.801Z,25.69
2023-06-29T08:45:24.002Z,25.45
2023-06-29T08:48:28.059Z,26.55
2023-06-29T08:51:35.972Z,26.56
2023-06-29T08:54:40.978Z,26.40
2023-06-29T08:57:46.131Z,26.24
2023-06-29T09:00:50.265Z,26.48
2023-06-29T09:03:54.020Z,27.02
2023-06-29T09:06:58.066Z,26.86
2023-06-29T09:10:01.428Z,25.91
2023-06-29T09:13:07.317Z,26.82
2023-06-29T09:16:11.698Z,26.86
2023-06-29T09:19:15.146Z,26.64
2023-06-29T09:22:19.189Z,26.81
2023-06-29T09:25:34.024Z,26.24
2023-06-29T09:28:46.898Z,26.53
2023-06-29T09:35:11.384Z,27.00
2023-06-29T09:38:16.144Z,26.76
2023-06-29T09:41:19.709Z,26.60
2023-06-29T09:44:25.975Z,26.60
2023-06-29T09:50:37.592Z,26.55
2023-06-29T09:53:40.892Z,27.10
2023-06-29T09:56:45.414Z,27.20
2023-06-29T09:59:50.808Z,27.14
2023-06-29T10:02:55.045Z,26.72
2023-06-29T10:06:08.903Z,26.74
2023-06-29T10:09:16.735Z,26.74
2023-06-29T10:12:21.024Z,26.79
2023-06-29T10:15:27.794Z,25.85
2023-06-29T10:18:34.519Z,26.52
2023-06-29T10:21:39.364Z,26.21
2023-06-29T10:24:49.938Z,26.78
2023-06-29T10:27:56.137Z,27.43
2023-06-29T10:31:00.816Z,27.36
2023-06-29T10:34:08.267Z,27.22
2023-06-29T10:37:31.103Z,26.89
2023-06-29T10:40:35.214Z,27.12
2023-06-29T10:43:56.460Z,27.14
2023-06-29T10:46:59.736Z,26.53
2023-06-29T10:50:20.159Z,26.78
2023-06-29T10:53:24.888Z,27.67
2023-06-29T10:56:32.447Z,26.92
2023-06-29T10:59:38.161Z,26.89
2023-06-29T11:02:50.200Z,27.08
2023-06-29T11:05:54.688Z,26.95
2023-06-29T11:09:02.620Z,27.72
2023-06-29T11:12:07.151Z,27.85
2023-06-29T11:15:19.673Z,27.36
2023-06-29T11:18:24.010Z,27.80
2023-06-29T11:21:27.997Z,27.34
2023-06-29T11:24:32.647Z,27.76
2023-06-29T11:27:36.253Z,28.12
2023-06-29T11:30:41.483Z,27.60
2023-06-29T11:33:51.528Z,27.95
2023-06-29T11:40:08.689Z,28.77
2023-06-29T11:43:12.267Z,28.45
2023-06-29T11:46:16.106Z,27.20
2023-06-29T11:49:21.130Z,27.33
2023-06-29T11:52:26.559Z,27.89
2023-06-29T11:55:31.737Z,27.68
2023-06-29T11:58:35.953Z,27.47
2023-06-29T12:01:39.758Z,27.87
2023-06-29T12:04:56.205Z,27.66
2023-06-29T12:08:07.884Z,28.03
2023-06-29T12:11:22.893Z,27.74
2023-06-29T12:14:28.980Z,27.62
2023-06-29T12:20:43.622Z,28.51
2023-06-29T12:23:47.338Z,28.17
2023-06-29T12:26:52.164Z,27.05
2023-06-29T12:29:55.274Z,27.82
2023-06-29T12:32:58.534Z,26.61
2023-06-29T12:36:02.114Z,27.09
2023-06-29T12:39:05.616Z,27.44
2023-06-29T12:42:10.205Z,27.37
2023-06-29T12:45:13.372Z,27.71
2023-06-29T12:48:16.772Z,27.92
2023-06-29T12:51:19.937Z,27.13
2023-06-29T12:54:23.125Z,27.81
2023-06-29T12:57:29.529Z,27.69
2023-06-29T13:00:32.751Z,28.38
2023-06-29T13:03:36.637Z,27.80
2023-06-29T13:06:40.453Z,27.75
2023-06-29T13:09:44.301Z,28.28
2023-06-29T13:12:49.533Z,27.43
2023-06-29T13:15:52.747Z,27.74
2023-06-29T13:18:56.023Z,27.41
2023-06-29T13:21:59.359Z,28.15
2023-06-29T13:25:02.549Z,27.97
2023-06-29T13:28:07.571Z,27.02
2023-06-29T13:31:10.874Z,27.32
2023-06-29T13:34:14.477Z,28.04
2023-06-29T13:37:17.996Z,28.85
2023-06-29T13:40:21.228Z,28.75
2023-06-29T13:43:25.933Z,28.71
2023-06-29T13:46:29.200Z,28.93
2023-06-29T13:49:32.345Z,28.79
2023-06-29T13:52:36.280Z,28.28
2023-06-29T13:55:39.482Z,28.26
2023-06-29T13:58:44.339Z,28.64
2023-06-29T14:01:47.618Z,27.72
2023-06-29T14:04:50.908Z,27.52
2023-06-29T14:07:54.141Z,27.53
2023-06-29T14:10:57.515Z,27.91
2023-06-29T14:14:02.183Z,28.30
2023-06-29T14:17:05.801Z,28.38
2023-06-29T14:20:10.001Z,28.02
2023-06-29T14:23:13.672Z,27.37
2023-06-29T14:26:17.048Z,27.58
2023-06-29T14:29:21.652Z,28.36
2023-06-29T14:32:24.863Z,28.21
2023-06-29T14:35:31.909Z,27.62
2023-06-29T14:38:37.401Z,28.00
2023-06-29T14:41:52.706Z,27.80
2023-06-29T14:44:57.396Z,28.15
2023-06-29T14:48:00.762Z,27.78
2023-06-29T14:51:04.122Z,27.60
2023-06-29T14:54:07.414Z,27.48
2023-06-29T14:57:10.893Z,27.65
2023-06-29T15:00:17.090Z,27.42
2023-06-29T15:03:20.652Z,27.32
2023-06-29T15:06:23.866Z,27.20
2023-06-29T15:09:27.690Z,27.42
2023-06-29T15:12:30.920Z,27.45
2023-06-29T15:15:35.564Z,27.47
2023-06-29T15:18:46.844Z,27.65
2023-06-29T15:21:58.436Z,27.50
2023-06-29T15:25:01.691Z,27.32
2023-06-29T15:28:04.921Z,27.39
2023-06-29T15:35:11.575Z,27.20
2023-06-29T15:38:14.770Z,27.43
2023-06-29T15:41:18.545Z,27.07
2023-06-29T15:44:21.706Z,26.83
2023-06-29T15:47:25.030Z,26.93
2023-06-29T15:50:29.481Z,26.89
2023-06-29T15:53:32.803Z,26.80
2023-06-29T15:56:36.512Z,26.76
2023-06-29T15:59:39.785Z,26.61
2023-06-29T16:02:47.454Z,26.60
2023-06-29T16:05:52.342Z,26.48
2023-06-29T16:08:55.569Z,26.57
2023-06-29T16:11:58.882Z,26.56
2023-06-29T16:15:02.219Z,26.36
2023-06-29T16:18:05.547Z,25.58
2023-06-29T16:21:10.312Z,25.47
2023-06-29T16:24:13.534Z,24.87
2023-06-29T16:27:16.726Z,24.77
2023-06-29T16:30:20.045Z,24.39
2023-06-29T16:33:23.620Z,24.67
2023-06-29T16:36:28.323Z,24.40
2023-06-29T16:39:31.624Z,24.70
2023-06-29T16:42:34.852Z,24.84
2023-06-29T16:45:38.094Z,25.05
2023-06-29T16:48:41.407Z,24.86
2023-06-29T16:51:46.064Z,25.09
2023-06-29T16:54:49.610Z,25.12
2023-06-29T16:57:53.303Z,24.99
2023-06-29T17:00:56.668Z,24.96
2023-06-29T17:03:59.893Z,24.91
2023-06-29T17:07:04.843Z,25.14
2023-06-29T17:10:08.822Z,25.20
2023-06-29T17:13:12.014Z,24.97
2023-06-29T17:16:15.712Z,24.91
2023-06-29T17:19:18.897Z,24.88
2023-06-29T17:22:23.464Z,24.85
2023-06-29T17:25:26.634Z,25.13
2023-06-29T17:28:29.830Z,24.88
2023-06-29T17:31:33.270Z,24.96
2023-06-29T17:34:36.893Z,24.93
2023-06-29T17:37:42.457Z,24.71
2023-06-29T17:40:45.704Z,24.62
2023-06-29T17:43:48.869Z,24.62
2023-06-29T17:46:52.165Z,24.77
2023-06-29T17:49:55.313Z,24.59
2023-06-29T17:52:59.866Z,24.41
2023-06-29T17:56:03.054Z,24.34
2023-06-29T17:59:06.866Z,24.29
2023-06-29T18:02:10.107Z,24.39
2023-06-29T18:05:13.335Z,24.31
2023-06-29T18:08:18.324Z,24.23
2023-06-29T18:11:21.507Z,24.20
2023-06-29T18:14:24.658Z,24.11
2023-06-29T18:17:30.928Z,24.07
2023-06-29T18:20:34.462Z,23.99
2023-06-29T18:23:39.037Z,23.85
2023-06-29T18:26:42.218Z,23.79
2023-06-29T18:29:45.393Z,23.65
2023-06-29T18:32:50.762Z,23.71
2023-06-29T18:35:54.028Z,23.66
2023-06-29T18:38:59.066Z,23.72
2023-06-29T18:42:02.282Z,23.57
2023-06-29T18:45:06.816Z,23.52
2023-06-29T18:48:10.273Z,23.42
2023-06-29T18:51:13.446Z,23.46
2023-06-29T18:54:18.001Z,23.34
2023-06-29T18:57:21.282Z,23.46
2023-06-29T19:00:25.606Z,23.39
2023-06-29T19:03:28.927Z,23.05
2023-06-29T19:06:32.438Z,23.34
2023-06-29T19:09:36.919Z,23.24
2023-06-29T19:12:40.233Z,23.19
2023-06-29T19:15:43.800Z,23.17
2023-06-29T19:18:47.215Z,23.07
2023-06-29T19:21:50.664Z,23.02
2023-06-29T19:24:55.294Z,23.04
2023-06-29T19:27:58.557Z,22.92
2023-06-29T19:31:01.781Z,22.63
2023-06-29T19:34:06.616Z,22.58
2023-06-29T19:37:11.290Z,22.40
2023-06-29T19:40:15.922Z,22.53
2023-06-29T19:43:19.474Z,22.65
2023-06-29T19:46:22.727Z,22.50
2023-06-29T19:49:27.918Z,22.61
2023-06-29T19:52:31.139Z,22.78
2023-06-29T19:55:36.433Z,22.67
2023-06-29T19:58:41.824Z,22.64
2023-06-29T20:01:45.120Z,22.73
2023-06-29T20:04:48.321Z,22.42
2023-06-29T20:07:52.181Z,22.36
2023-06-29T20:10:56.776Z,22.51
2023-06-29T20:14:00.163Z,22.59
2023-06-29T20:17:03.679Z,22.33
2023-06-29T20:20:08.912Z,22.27
2023-06-29T20:23:12.641Z,22.33
2023-06-29T20:26:17.255Z,21.96
2023-06-29T20:29:20.486Z,22.01
2023-06-29T20:32:23.835Z,21.59
2023-06-29T20:35:27.006Z,21.35
2023-06-29T20:38:30.216Z,21.32
2023-06-29T20:41:34.783Z,21.26
2023-06-29T20:44:38.102Z,21.21
2023-06-29T20:47:48.127Z,21.14
2023-06-29T20:51:00.778Z,21.02
2023-06-29T20:54:14.895Z,21.25
2023-06-29T20:57:23.248Z,21.32
2023-06-29T21:00:26.597Z,21.18
2023-06-29T21:03:34.212Z,21.35
2023-06-29T21:06:37.913Z,21.53
2023-06-29T21:09:42.778Z,21.24
2023-06-29T21:12:49.481Z,21.30
2023-06-29T21:15:53.089Z,21.60
2023-06-29T21:18:56.862Z,21.32
2023-06-29T21:22:00.467Z,21.24
2023-06-29T21:25:04.258Z,21.36
2023-06-29T21:28:11.673Z,21.09
2023-06-29T21:35:11.877Z,21.12
2023-06-29T21:38:15.594Z,21.34
2023-06-29T21:41:18.776Z,21.17
2023-06-29T21:44:21.979Z,21.15
2023-06-29T21:47:25.231Z,21.08
2023-06-29T21:50:29.761Z,21.06
2023-06-29T21:53:32.944Z,21.05
2023-06-29T21:56:36.235Z,20.99
2023-06-29T21:59:39.358Z,21.12
2023-06-29T22:02:47.408Z,20.97
2023-06-29T22:05:52.026Z,20.94
2023-06-29T22:08:55.339Z,20.90
2023-06-29T22:11:58.635Z,20.91
2023-06-29T22:15:01.776Z,21.06
2023-06-29T22:18:07.942Z,21.03
2023-06-29T22:21:13.372Z,21.02
2023-06-29T22:24:16.522Z,21.17
2023-06-29T22:27:19.695Z,21.07
2023-06-29T22:30:22.830Z,20.97
2023-06-29T22:33:26.327Z,20.86
2023-06-29T22:36:30.819Z,20.89
2023-06-29T22:39:33.952Z,20.92
2023-06-29T22:42:37.666Z,20.83
2023-06-29T22:45:41.302Z,20.99
2023-06-29T22:48:45.107Z,20.80
2023-06-29T22:51:49.638Z,20.70
2023-06-29T22:54:53.717Z,20.56
2023-06-29T22:57:56.897Z,20.42
2023-06-29T23:01:01.974Z,20.21
2023-06-29T23:04:05.638Z,20.11
2023-06-29T23:07:10.234Z,20.52
2023-06-29T23:10:14.451Z,20.08
2023-06-29T23:13:18.067Z,19.96
2023-06-29T23:16:21.503Z,20.00
2023-06-29T23:19:24.739Z,19.91
2023-06-29T23:22:29.547Z,19.97
2023-06-29T23:25:34.122Z,19.97
2023-06-29T23:28:37.857Z,19.92
2023-06-29T23:31:41.449Z,19.72
2023-06-29T23:34:44.761Z,19.71
2023-06-29T23:37:49.485Z,19.11
2023-06-29T23:40:52.650Z,19.59
2023-06-29T23:44:03.892Z,19.39
2023-06-29T23:47:11.105Z,19.60
2023-06-29T23:50:14.454Z,19.72
2023-06-29T23:53:19.402Z,19.52
2023-06-29T23:56:22.542Z,19.61
2023-06-29T23:59:25.636Z,19.53
